sensor_id;sensor_type;location;lat;lon;timestamp;P1;durP1;ratioP1;P2;durP2;ratioP2
62258;SDS011;48241;48.824;10.102;2023-04-25T00:00:35;3.75;;;1.92;;
62258;SDS011;48241;48.824;10.102;2023-04-25T00:03:00;3.35;;;1.85;;
62258;SDS011;48241;48.824;10.102;2023-04-25T00:05:26;3.92;;;1.73;;
62258;SDS011;48241;48.824;10.102;2023-04-25T00:07:52;2.58;;;1.85;;
62258;SDS011;48241;48.824;10.102;2023-04-25T00:10:19;2.92;;;1.67;;
62258;SDS011;48241;48.824;10.102;2023-04-25T00:12:45;2.97;;;2.38;;
62258;SDS011;48241;48.824;10.102;2023-04-25T00:15:11;3.25;;;2.08;;
62258;SDS011;48241;48.824;10.102;2023-04-25T00:17:37;3.15;;;1.70;;
62258;SDS011;48241;48.824;10.102;2023-04-25T00:20:06;3.03;;;1.80;;
62258;SDS011;48241;48.824;10.102;2023-04-25T00:22:34;4.07;;;1.80;;
62258;SDS011;48241;48.824;10.102;2023-04-25T00:25:02;2.75;;;2.15;;
62258;SDS011;48241;48.824;10.102;2023-04-25T00:27:31;2.70;;;1.95;;
62258;SDS011;48241;48.824;10.102;2023-04-25T00:29:57;2.83;;;1.80;;
62258;SDS011;48241;48.824;10.102;2023-04-25T00:32:22;2.88;;;1.90;;
62258;SDS011;48241;48.824;10.102;2023-04-25T00:34:48;1.60;;;1.50;;
62258;SDS011;48241;48.824;10.102;2023-04-25T00:37:14;3.80;;;1.65;;
62258;SDS011;48241;48.824;10.102;2023-04-25T00:39:39;1.88;;;1.45;;
62258;SDS011;48241;48.824;10.102;2023-04-25T00:42:05;2.97;;;1.90;;
62258;SDS011;48241;48.824;10.102;2023-04-25T00:44:31;1.90;;;1.60;;
62258;SDS011;48241;48.824;10.102;2023-04-25T00:46:57;4.70;;;1.90;;
62258;SDS011;48241;48.824;10.102;2023-04-25T00:49:23;2.95;;;1.60;;
62258;SDS011;48241;48.824;10.102;2023-04-25T00:51:48;3.17;;;1.83;;
62258;SDS011;48241;48.824;10.102;2023-04-25T00:54:15;2.80;;;1.50;;
62258;SDS011;48241;48.824;10.102;2023-04-25T00:56:41;2.13;;;1.55;;
62258;SDS011;48241;48.824;10.102;2023-04-25T00:59:07;4.18;;;2.25;;
62258;SDS011;48241;48.824;10.102;2023-04-25T01:01:34;4.88;;;2.20;;
62258;SDS011;48241;48.824;10.102;2023-04-25T01:04:00;3.10;;;2.20;;
62258;SDS011;48241;48.824;10.102;2023-04-25T01:06:26;2.80;;;1.83;;
62258;SDS011;48241;48.824;10.102;2023-04-25T01:08:52;2.95;;;2.00;;
62258;SDS011;48241;48.824;10.102;2023-04-25T01:11:18;3.35;;;2.08;;
62258;SDS011;48241;48.824;10.102;2023-04-25T01:13:44;3.33;;;2.20;;
62258;SDS011;48241;48.824;10.102;2023-04-25T01:16:10;4.07;;;2.40;;
62258;SDS011;48241;48.824;10.102;2023-04-25T01:18:36;3.25;;;2.25;;
62258;SDS011;48241;48.824;10.102;2023-04-25T01:21:07;2.67;;;2.10;;
62258;SDS011;48241;48.824;10.102;2023-04-25T01:23:35;2.65;;;2.00;;
62258;SDS011;48241;48.824;10.102;2023-04-25T01:26:01;3.83;;;2.30;;
62258;SDS011;48241;48.824;10.102;2023-04-25T01:28:28;2.78;;;2.03;;
62258;SDS011;48241;48.824;10.102;2023-04-25T01:30:54;4.60;;;1.90;;
62258;SDS011;48241;48.824;10.102;2023-04-25T01:33:21;2.75;;;1.85;;
62258;SDS011;48241;48.824;10.102;2023-04-25T01:35:47;2.88;;;1.98;;
62258;SDS011;48241;48.824;10.102;2023-04-25T01:38:13;2.75;;;1.67;;
62258;SDS011;48241;48.824;10.102;2023-04-25T01:40:39;4.57;;;1.80;;
62258;SDS011;48241;48.824;10.102;2023-04-25T01:43:06;2.10;;;1.90;;
62258;SDS011;48241;48.824;10.102;2023-04-25T01:45:33;3.65;;;2.10;;
62258;SDS011;48241;48.824;10.102;2023-04-25T01:47:59;3.60;;;2.10;;
62258;SDS011;48241;48.824;10.102;2023-04-25T01:50:24;1.98;;;1.55;;
62258;SDS011;48241;48.824;10.102;2023-04-25T01:52:50;2.03;;;1.60;;
62258;SDS011;48241;48.824;10.102;2023-04-25T01:55:16;2.70;;;1.65;;
62258;SDS011;48241;48.824;10.102;2023-04-25T01:57:41;3.47;;;1.60;;
62258;SDS011;48241;48.824;10.102;2023-04-25T02:00:07;2.88;;;1.50;;
62258;SDS011;48241;48.824;10.102;2023-04-25T02:02:34;2.38;;;1.60;;
62258;SDS011;48241;48.824;10.102;2023-04-25T02:05:00;2.80;;;1.90;;
62258;SDS011;48241;48.824;10.102;2023-04-25T02:07:26;3.42;;;1.80;;
62258;SDS011;48241;48.824;10.102;2023-04-25T02:09:52;3.55;;;1.75;;
62258;SDS011;48241;48.824;10.102;2023-04-25T02:12:17;2.45;;;1.75;;
62258;SDS011;48241;48.824;10.102;2023-04-25T02:14:43;3.25;;;1.98;;
62258;SDS011;48241;48.824;10.102;2023-04-25T02:17:09;2.13;;;1.45;;
62258;SDS011;48241;48.824;10.102;2023-04-25T02:19:34;3.08;;;1.83;;
62258;SDS011;48241;48.824;10.102;2023-04-25T02:22:00;3.88;;;2.13;;
62258;SDS011;48241;48.824;10.102;2023-04-25T02:24:26;3.28;;;1.70;;
62258;SDS011;48241;48.824;10.102;2023-04-25T02:26:52;2.78;;;1.75;;
62258;SDS011;48241;48.824;10.102;2023-04-25T02:29:20;3.25;;;1.90;;
62258;SDS011;48241;48.824;10.102;2023-04-25T02:31:46;2.30;;;1.80;;
62258;SDS011;48241;48.824;10.102;2023-04-25T02:34:11;1.60;;;1.30;;
62258;SDS011;48241;48.824;10.102;2023-04-25T02:36:37;3.05;;;1.40;;
62258;SDS011;48241;48.824;10.102;2023-04-25T02:39:02;3.33;;;1.80;;
62258;SDS011;48241;48.824;10.102;2023-04-25T02:41:28;2.25;;;1.60;;
62258;SDS011;48241;48.824;10.102;2023-04-25T02:43:54;3.47;;;1.90;;
62258;SDS011;48241;48.824;10.102;2023-04-25T02:46:19;2.78;;;2.10;;
62258;SDS011;48241;48.824;10.102;2023-04-25T02:48:45;4.88;;;1.95;;
62258;SDS011;48241;48.824;10.102;2023-04-25T02:51:11;2.55;;;2.13;;
62258;SDS011;48241;48.824;10.102;2023-04-25T02:53:37;3.67;;;2.20;;
62258;SDS011;48241;48.824;10.102;2023-04-25T02:56:03;4.85;;;2.55;;
62258;SDS011;48241;48.824;10.102;2023-04-25T02:58:28;4.88;;;2.42;;
62258;SDS011;48241;48.824;10.102;2023-04-25T03:00:54;4.00;;;2.53;;
62258;SDS011;48241;48.824;10.102;2023-04-25T03:03:20;5.07;;;2.35;;
62258;SDS011;48241;48.824;10.102;2023-04-25T03:05:47;2.35;;;2.10;;
62258;SDS011;48241;48.824;10.102;2023-04-25T03:08:14;3.25;;;2.20;;
62258;SDS011;48241;48.824;10.102;2023-04-25T03:10:39;6.25;;;2.35;;
62258;SDS011;48241;48.824;10.102;2023-04-25T03:13:05;2.72;;;2.35;;
62258;SDS011;48241;48.824;10.102;2023-04-25T03:15:30;5.28;;;2.38;;
62258;SDS011;48241;48.824;10.102;2023-04-25T03:17:56;3.15;;;2.10;;
62258;SDS011;48241;48.824;10.102;2023-04-25T03:20:22;4.57;;;2.95;;
62258;SDS011;48241;48.824;10.102;2023-04-25T03:22:47;3.08;;;2.63;;
62258;SDS011;48241;48.824;10.102;2023-04-25T03:25:13;5.47;;;2.80;;
62258;SDS011;48241;48.824;10.102;2023-04-25T03:27:38;3.25;;;2.78;;
62258;SDS011;48241;48.824;10.102;2023-04-25T03:30:04;3.45;;;2.65;;
62258;SDS011;48241;48.824;10.102;2023-04-25T03:32:31;3.95;;;2.75;;
62258;SDS011;48241;48.824;10.102;2023-04-25T03:34:57;5.38;;;3.00;;
62258;SDS011;48241;48.824;10.102;2023-04-25T03:37:22;3.28;;;2.97;;
62258;SDS011;48241;48.824;10.102;2023-04-25T03:39:48;3.45;;;2.47;;
62258;SDS011;48241;48.824;10.102;2023-04-25T03:42:13;4.50;;;2.65;;
62258;SDS011;48241;48.824;10.102;2023-04-25T03:44:39;4.13;;;2.80;;
62258;SDS011;48241;48.824;10.102;2023-04-25T03:47:04;4.35;;;2.65;;
62258;SDS011;48241;48.824;10.102;2023-04-25T03:49:31;3.38;;;2.60;;
62258;SDS011;48241;48.824;10.102;2023-04-25T03:51:57;5.88;;;2.72;;
62258;SDS011;48241;48.824;10.102;2023-04-25T03:54:23;4.43;;;2.78;;
62258;SDS011;48241;48.824;10.102;2023-04-25T03:56:48;4.55;;;2.72;;
62258;SDS011;48241;48.824;10.102;2023-04-25T03:59:14;2.85;;;2.60;;
62258;SDS011;48241;48.824;10.102;2023-04-25T04:01:39;4.68;;;2.42;;
62258;SDS011;48241;48.824;10.102;2023-04-25T04:04:05;3.13;;;2.33;;
62258;SDS011;48241;48.824;10.102;2023-04-25T04:06:30;6.22;;;2.60;;
62258;SDS011;48241;48.824;10.102;2023-04-25T04:08:56;4.32;;;2.85;;
62258;SDS011;48241;48.824;10.102;2023-04-25T04:11:21;3.05;;;2.47;;
62258;SDS011;48241;48.824;10.102;2023-04-25T04:13:47;4.55;;;2.33;;
62258;SDS011;48241;48.824;10.102;2023-04-25T04:16:13;3.42;;;2.60;;
62258;SDS011;48241;48.824;10.102;2023-04-25T04:18:38;3.63;;;2.63;;
62258;SDS011;48241;48.824;10.102;2023-04-25T04:21:04;3.30;;;2.40;;
62258;SDS011;48241;48.824;10.102;2023-04-25T04:23:30;6.55;;;2.75;;
62258;SDS011;48241;48.824;10.102;2023-04-25T04:25:56;4.15;;;2.63;;
62258;SDS011;48241;48.824;10.102;2023-04-25T04:28:22;5.80;;;2.78;;
62258;SDS011;48241;48.824;10.102;2023-04-25T04:30:47;4.68;;;2.10;;
62258;SDS011;48241;48.824;10.102;2023-04-25T04:33:16;3.95;;;2.08;;
62258;SDS011;48241;48.824;10.102;2023-04-25T04:35:43;4.40;;;2.30;;
62258;SDS011;48241;48.824;10.102;2023-04-25T04:38:09;3.05;;;2.30;;
62258;SDS011;48241;48.824;10.102;2023-04-25T04:40:36;3.65;;;2.50;;
62258;SDS011;48241;48.824;10.102;2023-04-25T04:43:02;4.95;;;2.30;;
62258;SDS011;48241;48.824;10.102;2023-04-25T04:45:28;3.80;;;2.40;;
62258;SDS011;48241;48.824;10.102;2023-04-25T04:47:54;4.43;;;2.85;;
62258;SDS011;48241;48.824;10.102;2023-04-25T04:50:20;5.80;;;2.90;;
62258;SDS011;48241;48.824;10.102;2023-04-25T04:52:45;4.97;;;2.55;;
62258;SDS011;48241;48.824;10.102;2023-04-25T04:55:11;2.20;;;1.80;;
62258;SDS011;48241;48.824;10.102;2023-04-25T04:57:37;3.63;;;2.60;;
62258;SDS011;48241;48.824;10.102;2023-04-25T05:00:03;3.58;;;2.47;;
62258;SDS011;48241;48.824;10.102;2023-04-25T05:02:33;8.20;;;2.65;;
62258;SDS011;48241;48.824;10.102;2023-04-25T05:04:58;4.35;;;2.92;;
62258;SDS011;48241;48.824;10.102;2023-04-25T05:07:24;4.30;;;2.60;;
62258;SDS011;48241;48.824;10.102;2023-04-25T05:09:49;4.55;;;2.85;;
62258;SDS011;48241;48.824;10.102;2023-04-25T05:12:15;5.07;;;2.97;;
62258;SDS011;48241;48.824;10.102;2023-04-25T05:14:41;5.18;;;3.05;;
62258;SDS011;48241;48.824;10.102;2023-04-25T05:17:06;4.97;;;3.03;;
62258;SDS011;48241;48.824;10.102;2023-04-25T05:19:33;4.90;;;2.90;;
62258;SDS011;48241;48.824;10.102;2023-04-25T05:21:59;4.30;;;3.13;;
62258;SDS011;48241;48.824;10.102;2023-04-25T05:24:24;5.93;;;3.47;;
62258;SDS011;48241;48.824;10.102;2023-04-25T05:26:50;4.82;;;2.92;;
62258;SDS011;48241;48.824;10.102;2023-04-25T05:29:16;4.10;;;3.03;;
62258;SDS011;48241;48.824;10.102;2023-04-25T05:31:41;4.72;;;2.70;;
62258;SDS011;48241;48.824;10.102;2023-04-25T05:34:07;5.07;;;2.78;;
62258;SDS011;48241;48.824;10.102;2023-04-25T05:36:32;4.18;;;2.80;;
62258;SDS011;48241;48.824;10.102;2023-04-25T05:38:58;4.35;;;2.78;;
62258;SDS011;48241;48.824;10.102;2023-04-25T05:41:23;5.63;;;2.70;;
62258;SDS011;48241;48.824;10.102;2023-04-25T05:43:49;3.92;;;2.80;;
62258;SDS011;48241;48.824;10.102;2023-04-25T05:46:15;6.38;;;2.90;;
62258;SDS011;48241;48.824;10.102;2023-04-25T05:48:43;5.15;;;2.40;;
62258;SDS011;48241;48.824;10.102;2023-04-25T05:51:09;5.10;;;2.72;;
62258;SDS011;48241;48.824;10.102;2023-04-25T05:53:35;8.60;;;3.10;;
62258;SDS011;48241;48.824;10.102;2023-04-25T05:56:00;3.08;;;2.55;;
62258;SDS011;48241;48.824;10.102;2023-04-25T05:58:26;6.40;;;3.05;;
62258;SDS011;48241;48.824;10.102;2023-04-25T06:00:52;5.63;;;3.00;;
62258;SDS011;48241;48.824;10.102;2023-04-25T06:03:18;3.92;;;2.92;;
62258;SDS011;48241;48.824;10.102;2023-04-25T06:05:43;4.65;;;2.65;;
62258;SDS011;48241;48.824;10.102;2023-04-25T06:08:09;8.23;;;3.72;;
62258;SDS011;48241;48.824;10.102;2023-04-25T06:10:38;9.63;;;5.50;;
62258;SDS011;48241;48.824;10.102;2023-04-25T06:13:04;8.27;;;5.20;;
62258;SDS011;48241;48.824;10.102;2023-04-25T06:15:30;5.45;;;3.83;;
62258;SDS011;48241;48.824;10.102;2023-04-25T06:17:57;4.72;;;3.30;;
62258;SDS011;48241;48.824;10.102;2023-04-25T06:20:23;7.75;;;3.28;;
62258;SDS011;48241;48.824;10.102;2023-04-25T06:22:49;3.67;;;3.10;;
62258;SDS011;48241;48.824;10.102;2023-04-25T06:25:16;4.60;;;2.85;;
62258;SDS011;48241;48.824;10.102;2023-04-25T06:27:42;4.25;;;2.85;;
62258;SDS011;48241;48.824;10.102;2023-04-25T06:30:08;5.35;;;3.15;;
62258;SDS011;48241;48.824;10.102;2023-04-25T06:32:34;4.22;;;3.30;;
62258;SDS011;48241;48.824;10.102;2023-04-25T06:35:00;5.10;;;3.20;;
62258;SDS011;48241;48.824;10.102;2023-04-25T06:37:26;6.80;;;3.20;;
62258;SDS011;48241;48.824;10.102;2023-04-25T06:39:51;5.30;;;2.70;;
62258;SDS011;48241;48.824;10.102;2023-04-25T06:42:17;5.30;;;3.03;;
62258;SDS011;48241;48.824;10.102;2023-04-25T06:44:43;5.22;;;3.30;;
62258;SDS011;48241;48.824;10.102;2023-04-25T06:47:08;4.25;;;2.85;;
62258;SDS011;48241;48.824;10.102;2023-04-25T06:49:34;3.55;;;2.80;;
62258;SDS011;48241;48.824;10.102;2023-04-25T06:51:59;5.55;;;3.50;;
62258;SDS011;48241;48.824;10.102;2023-04-25T06:54:25;4.95;;;3.00;;
62258;SDS011;48241;48.824;10.102;2023-04-25T06:56:53;3.42;;;3.03;;
62258;SDS011;48241;48.824;10.102;2023-04-25T06:59:19;5.15;;;3.75;;
62258;SDS011;48241;48.824;10.102;2023-04-25T07:01:45;4.85;;;3.15;;
62258;SDS011;48241;48.824;10.102;2023-04-25T07:04:10;4.18;;;2.63;;
62258;SDS011;48241;48.824;10.102;2023-04-25T07:06:36;4.47;;;2.92;;
62258;SDS011;48241;48.824;10.102;2023-04-25T07:09:07;4.80;;;2.95;;
62258;SDS011;48241;48.824;10.102;2023-04-25T07:11:35;4.03;;;2.95;;
62258;SDS011;48241;48.824;10.102;2023-04-25T07:14:01;3.97;;;3.03;;
62258;SDS011;48241;48.824;10.102;2023-04-25T07:16:27;5.38;;;3.17;;
62258;SDS011;48241;48.824;10.102;2023-04-25T07:18:53;5.95;;;3.20;;
62258;SDS011;48241;48.824;10.102;2023-04-25T07:21:19;5.15;;;3.40;;
62258;SDS011;48241;48.824;10.102;2023-04-25T07:23:44;4.68;;;3.38;;
62258;SDS011;48241;48.824;10.102;2023-04-25T07:26:10;4.05;;;3.50;;
62258;SDS011;48241;48.824;10.102;2023-04-25T07:28:35;5.65;;;3.97;;
62258;SDS011;48241;48.824;10.102;2023-04-25T07:31:01;3.67;;;3.22;;
62258;SDS011;48241;48.824;10.102;2023-04-25T07:33:27;6.47;;;4.10;;
62258;SDS011;48241;48.824;10.102;2023-04-25T07:35:53;5.38;;;4.15;;
62258;SDS011;48241;48.824;10.102;2023-04-25T07:38:19;3.85;;;3.45;;
62258;SDS011;48241;48.824;10.102;2023-04-25T07:40:45;3.65;;;3.35;;
62258;SDS011;48241;48.824;10.102;2023-04-25T07:43:12;5.75;;;3.80;;
62258;SDS011;48241;48.824;10.102;2023-04-25T07:45:39;5.43;;;3.75;;
62258;SDS011;48241;48.824;10.102;2023-04-25T07:48:05;4.80;;;3.58;;
62258;SDS011;48241;48.824;10.102;2023-04-25T07:50:31;4.40;;;3.80;;
62258;SDS011;48241;48.824;10.102;2023-04-25T07:52:56;4.47;;;3.53;;
62258;SDS011;48241;48.824;10.102;2023-04-25T07:55:22;3.78;;;3.47;;
62258;SDS011;48241;48.824;10.102;2023-04-25T07:57:47;4.90;;;3.78;;
62258;SDS011;48241;48.824;10.102;2023-04-25T08:00:13;4.18;;;3.63;;
62258;SDS011;48241;48.824;10.102;2023-04-25T08:02:39;4.32;;;3.60;;
62258;SDS011;48241;48.824;10.102;2023-04-25T08:05:05;3.85;;;3.50;;
62258;SDS011;48241;48.824;10.102;2023-04-25T08:07:33;4.50;;;3.70;;
62258;SDS011;48241;48.824;10.102;2023-04-25T08:09:59;5.35;;;3.92;;
62258;SDS011;48241;48.824;10.102;2023-04-25T08:12:25;4.57;;;3.30;;
62258;SDS011;48241;48.824;10.102;2023-04-25T08:14:51;4.10;;;3.70;;
62258;SDS011;48241;48.824;10.102;2023-04-25T08:17:16;3.80;;;3.33;;
62258;SDS011;48241;48.824;10.102;2023-04-25T08:19:43;4.07;;;3.67;;
62258;SDS011;48241;48.824;10.102;2023-04-25T08:22:11;4.28;;;3.85;;
62258;SDS011;48241;48.824;10.102;2023-04-25T08:24:37;3.78;;;3.30;;
62258;SDS011;48241;48.824;10.102;2023-04-25T08:27:05;3.53;;;3.22;;
62258;SDS011;48241;48.824;10.102;2023-04-25T08:29:32;5.55;;;3.22;;
62258;SDS011;48241;48.824;10.102;2023-04-25T08:31:59;3.65;;;3.30;;
62258;SDS011;48241;48.824;10.102;2023-04-25T08:34:25;4.78;;;3.22;;
62258;SDS011;48241;48.824;10.102;2023-04-25T08:36:51;4.05;;;3.38;;
62258;SDS011;48241;48.824;10.102;2023-04-25T08:39:17;3.53;;;3.22;;
62258;SDS011;48241;48.824;10.102;2023-04-25T08:41:43;3.90;;;3.50;;
62258;SDS011;48241;48.824;10.102;2023-04-25T08:44:12;3.30;;;2.85;;
62258;SDS011;48241;48.824;10.102;2023-04-25T08:46:40;3.92;;;3.10;;
62258;SDS011;48241;48.824;10.102;2023-04-25T08:49:06;3.20;;;2.90;;
62258;SDS011;48241;48.824;10.102;2023-04-25T08:51:40;4.28;;;3.00;;
62258;SDS011;48241;48.824;10.102;2023-04-25T08:54:12;4.18;;;3.08;;
62258;SDS011;48241;48.824;10.102;2023-04-25T08:56:40;3.08;;;2.78;;
62258;SDS011;48241;48.824;10.102;2023-04-25T08:59:08;2.67;;;2.47;;
62258;SDS011;48241;48.824;10.102;2023-04-25T09:01:34;3.47;;;3.17;;
62258;SDS011;48241;48.824;10.102;2023-04-25T09:04:04;3.90;;;2.95;;
62258;SDS011;48241;48.824;10.102;2023-04-25T09:06:33;2.78;;;2.58;;
62258;SDS011;48241;48.824;10.102;2023-04-25T09:09:03;4.05;;;2.88;;
62258;SDS011;48241;48.824;10.102;2023-04-25T09:11:31;3.67;;;2.88;;
62258;SDS011;48241;48.824;10.102;2023-04-25T09:14:13;3.50;;;3.17;;
62258;SDS011;48241;48.824;10.102;2023-04-25T09:19:23;2.88;;;2.58;;
62258;SDS011;48241;48.824;10.102;2023-04-25T09:21:57;4.70;;;2.83;;
62258;SDS011;48241;48.824;10.102;2023-04-25T09:24:32;3.65;;;2.88;;
62258;SDS011;48241;48.824;10.102;2023-04-25T09:27:02;3.47;;;2.35;;
62258;SDS011;48241;48.824;10.102;2023-04-25T09:29:31;3.40;;;2.50;;
62258;SDS011;48241;48.824;10.102;2023-04-25T09:37:26;2.63;;;2.42;;
62258;SDS011;48241;48.824;10.102;2023-04-25T09:39:54;2.72;;;2.45;;
62258;SDS011;48241;48.824;10.102;2023-04-25T09:42:30;3.63;;;2.70;;
62258;SDS011;48241;48.824;10.102;2023-04-25T09:44:57;3.80;;;2.88;;
62258;SDS011;48241;48.824;10.102;2023-04-25T09:51:07;5.72;;;2.90;;
62258;SDS011;48241;48.824;10.102;2023-04-25T09:53:42;3.75;;;2.85;;
62258;SDS011;48241;48.824;10.102;2023-04-25T09:56:11;3.97;;;2.90;;
62258;SDS011;48241;48.824;10.102;2023-04-25T09:58:38;6.88;;;3.50;;
62258;SDS011;48241;48.824;10.102;2023-04-25T10:01:12;3.25;;;2.95;;
62258;SDS011;48241;48.824;10.102;2023-04-25T10:03:41;3.47;;;2.90;;
62258;SDS011;48241;48.824;10.102;2023-04-25T10:06:08;3.70;;;2.90;;
62258;SDS011;48241;48.824;10.102;2023-04-25T10:08:39;3.40;;;2.70;;
62258;SDS011;48241;48.824;10.102;2023-04-25T10:11:07;3.88;;;3.22;;
62258;SDS011;48241;48.824;10.102;2023-04-25T10:13:36;3.55;;;2.55;;
62258;SDS011;48241;48.824;10.102;2023-04-25T10:19:09;3.97;;;2.70;;
62258;SDS011;48241;48.824;10.102;2023-04-25T10:21:35;3.17;;;2.58;;
62258;SDS011;48241;48.824;10.102;2023-04-25T10:24:13;2.75;;;2.53;;
62258;SDS011;48241;48.824;10.102;2023-04-25T10:26:40;3.97;;;2.70;;
62258;SDS011;48241;48.824;10.102;2023-04-25T10:29:06;4.60;;;2.95;;
62258;SDS011;48241;48.824;10.102;2023-04-25T10:31:38;4.45;;;3.05;;
62258;SDS011;48241;48.824;10.102;2023-04-25T10:34:12;4.35;;;3.40;;
62258;SDS011;48241;48.824;10.102;2023-04-25T10:36:38;3.78;;;3.05;;
62258;SDS011;48241;48.824;10.102;2023-04-25T10:39:05;3.80;;;3.15;;
62258;SDS011;48241;48.824;10.102;2023-04-25T10:41:46;4.57;;;3.75;;
62258;SDS011;48241;48.824;10.102;2023-04-25T10:44:17;4.07;;;3.67;;
62258;SDS011;48241;48.824;10.102;2023-04-25T10:46:43;4.45;;;3.78;;
62258;SDS011;48241;48.824;10.102;2023-04-25T10:49:10;5.20;;;4.35;;
62258;SDS011;48241;48.824;10.102;2023-04-25T10:52:10;5.63;;;4.15;;
62258;SDS011;48241;48.824;10.102;2023-04-25T10:54:40;4.88;;;4.25;;
62258;SDS011;48241;48.824;10.102;2023-04-25T10:57:07;5.63;;;4.30;;
62258;SDS011;48241;48.824;10.102;2023-04-25T10:59:33;6.55;;;4.28;;
62258;SDS011;48241;48.824;10.102;2023-04-25T11:01:58;6.40;;;4.45;;
62258;SDS011;48241;48.824;10.102;2023-04-25T11:04:33;6.57;;;4.82;;
62258;SDS011;48241;48.824;10.102;2023-04-25T11:09:33;5.68;;;4.07;;
62258;SDS011;48241;48.824;10.102;2023-04-25T11:11:59;4.72;;;3.58;;
62258;SDS011;48241;48.824;10.102;2023-04-25T11:14:25;3.78;;;3.45;;
62258;SDS011;48241;48.824;10.102;2023-04-25T11:16:58;3.85;;;3.42;;
62258;SDS011;48241;48.824;10.102;2023-04-25T11:19:26;6.03;;;3.40;;
62258;SDS011;48241;48.824;10.102;2023-04-25T11:21:58;4.88;;;3.35;;
62258;SDS011;48241;48.824;10.102;2023-04-25T11:26:54;4.68;;;3.45;;
62258;SDS011;48241;48.824;10.102;2023-04-25T11:29:23;5.70;;;3.40;;
62258;SDS011;48241;48.824;10.102;2023-04-25T11:31:53;4.55;;;3.28;;
62258;SDS011;48241;48.824;10.102;2023-04-25T11:34:21;3.88;;;3.00;;
62258;SDS011;48241;48.824;10.102;2023-04-25T11:36:47;3.85;;;3.00;;
62258;SDS011;48241;48.824;10.102;2023-04-25T11:39:13;3.30;;;3.00;;
62258;SDS011;48241;48.824;10.102;2023-04-25T11:41:40;3.95;;;3.13;;
62258;SDS011;48241;48.824;10.102;2023-04-25T11:44:06;4.38;;;3.42;;
62258;SDS011;48241;48.824;10.102;2023-04-25T11:46:35;5.70;;;3.20;;
62258;SDS011;48241;48.824;10.102;2023-04-25T11:49:01;4.20;;;3.80;;
62258;SDS011;48241;48.824;10.102;2023-04-25T11:51:27;4.13;;;3.70;;
62258;SDS011;48241;48.824;10.102;2023-04-25T11:53:52;5.25;;;4.07;;
62258;SDS011;48241;48.824;10.102;2023-04-25T11:56:18;4.45;;;4.05;;
62258;SDS011;48241;48.824;10.102;2023-04-25T11:58:55;4.25;;;3.47;;
62258;SDS011;48241;48.824;10.102;2023-04-25T12:01:27;3.92;;;3.35;;
62258;SDS011;48241;48.824;10.102;2023-04-25T12:04:16;3.72;;;3.00;;
62258;SDS011;48241;48.824;10.102;2023-04-25T12:06:44;2.60;;;2.40;;
62258;SDS011;48241;48.824;10.102;2023-04-25T12:09:13;2.17;;;1.98;;
62258;SDS011;48241;48.824;10.102;2023-04-25T12:11:53;2.00;;;1.90;;
62258;SDS011;48241;48.824;10.102;2023-04-25T12:14:24;2.47;;;2.25;;
62258;SDS011;48241;48.824;10.102;2023-04-25T12:16:51;2.85;;;2.45;;
62258;SDS011;48241;48.824;10.102;2023-04-25T12:19:18;2.80;;;2.60;;
62258;SDS011;48241;48.824;10.102;2023-04-25T12:21:45;3.90;;;2.40;;
62258;SDS011;48241;48.824;10.102;2023-04-25T12:24:15;3.15;;;2.67;;
62258;SDS011;48241;48.824;10.102;2023-04-25T12:26:53;4.07;;;3.13;;
62258;SDS011;48241;48.824;10.102;2023-04-25T12:29:24;3.88;;;3.10;;
62258;SDS011;48241;48.824;10.102;2023-04-25T12:31:54;5.60;;;3.65;;
62258;SDS011;48241;48.824;10.102;2023-04-25T12:34:21;5.85;;;3.85;;
62258;SDS011;48241;48.824;10.102;2023-04-25T12:36:47;4.68;;;3.58;;
62258;SDS011;48241;48.824;10.102;2023-04-25T12:39:17;4.25;;;3.85;;
62258;SDS011;48241;48.824;10.102;2023-04-25T12:41:47;5.65;;;3.63;;
62258;SDS011;48241;48.824;10.102;2023-04-25T12:44:18;4.90;;;3.83;;
62258;SDS011;48241;48.824;10.102;2023-04-25T12:46:45;5.13;;;3.67;;
62258;SDS011;48241;48.824;10.102;2023-04-25T12:49:10;5.28;;;3.33;;
62258;SDS011;48241;48.824;10.102;2023-04-25T12:51:36;4.82;;;3.33;;
62258;SDS011;48241;48.824;10.102;2023-04-25T12:54:03;3.95;;;3.00;;
62258;SDS011;48241;48.824;10.102;2023-04-25T12:56:30;3.63;;;2.97;;
62258;SDS011;48241;48.824;10.102;2023-04-25T12:58:56;4.28;;;3.00;;
62258;SDS011;48241;48.824;10.102;2023-04-25T13:01:22;5.70;;;3.22;;
62258;SDS011;48241;48.824;10.102;2023-04-25T13:03:48;5.20;;;3.40;;
62258;SDS011;48241;48.824;10.102;2023-04-25T13:06:14;5.20;;;3.60;;
62258;SDS011;48241;48.824;10.102;2023-04-25T13:08:40;3.70;;;3.25;;
62258;SDS011;48241;48.824;10.102;2023-04-25T13:11:07;3.33;;;2.88;;
62258;SDS011;48241;48.824;10.102;2023-04-25T13:13:32;4.57;;;3.15;;
62258;SDS011;48241;48.824;10.102;2023-04-25T13:16:00;3.55;;;3.00;;
62258;SDS011;48241;48.824;10.102;2023-04-25T13:18:27;2.90;;;2.70;;
62258;SDS011;48241;48.824;10.102;2023-04-25T13:20:55;4.68;;;2.83;;
62258;SDS011;48241;48.824;10.102;2023-04-25T13:23:21;3.97;;;3.08;;
62258;SDS011;48241;48.824;10.102;2023-04-25T13:25:47;4.07;;;2.88;;
62258;SDS011;48241;48.824;10.102;2023-04-25T13:28:13;3.17;;;2.47;;
62258;SDS011;48241;48.824;10.102;2023-04-25T13:30:39;3.47;;;2.90;;
62258;SDS011;48241;48.824;10.102;2023-04-25T13:33:05;3.63;;;2.70;;
62258;SDS011;48241;48.824;10.102;2023-04-25T13:35:31;2.83;;;2.42;;
62258;SDS011;48241;48.824;10.102;2023-04-25T13:37:59;2.92;;;2.70;;
62258;SDS011;48241;48.824;10.102;2023-04-25T13:40:25;4.70;;;3.17;;
62258;SDS011;48241;48.824;10.102;2023-04-25T13:42:51;4.32;;;2.90;;
62258;SDS011;48241;48.824;10.102;2023-04-25T13:45:17;5.93;;;3.55;;
62258;SDS011;48241;48.824;10.102;2023-04-25T13:47:43;5.30;;;3.53;;
62258;SDS011;48241;48.824;10.102;2023-04-25T13:50:09;4.60;;;3.45;;
62258;SDS011;48241;48.824;10.102;2023-04-25T13:52:35;5.10;;;4.07;;
62258;SDS011;48241;48.824;10.102;2023-04-25T13:55:00;5.05;;;3.95;;
62258;SDS011;48241;48.824;10.102;2023-04-25T13:57:28;5.43;;;4.00;;
62258;SDS011;48241;48.824;10.102;2023-04-25T13:59:55;7.45;;;4.18;;
62258;SDS011;48241;48.824;10.102;2023-04-25T14:02:20;4.28;;;3.75;;
62258;SDS011;48241;48.824;10.102;2023-04-25T14:04:46;6.65;;;4.63;;
62258;SDS011;48241;48.824;10.102;2023-04-25T14:07:12;7.07;;;4.30;;
62258;SDS011;48241;48.824;10.102;2023-04-25T14:09:40;4.65;;;4.00;;
62258;SDS011;48241;48.824;10.102;2023-04-25T14:12:06;6.30;;;4.18;;
62258;SDS011;48241;48.824;10.102;2023-04-25T14:14:32;4.80;;;4.32;;
62258;SDS011;48241;48.824;10.102;2023-04-25T14:16:58;5.60;;;4.43;;
62258;SDS011;48241;48.824;10.102;2023-04-25T14:19:23;5.25;;;4.60;;
62258;SDS011;48241;48.824;10.102;2023-04-25T14:21:49;5.70;;;4.00;;
62258;SDS011;48241;48.824;10.102;2023-04-25T14:24:15;2.78;;;1.50;;
62258;SDS011;48241;48.824;10.102;2023-04-25T14:26:41;1.90;;;1.60;;
62258;SDS011;48241;48.824;10.102;2023-04-25T14:29:07;3.35;;;1.70;;
62258;SDS011;48241;48.824;10.102;2023-04-25T14:31:33;2.15;;;1.85;;
62258;SDS011;48241;48.824;10.102;2023-04-25T14:33:59;3.85;;;2.30;;
62258;SDS011;48241;48.824;10.102;2023-04-25T14:36:25;3.22;;;1.95;;
62258;SDS011;48241;48.824;10.102;2023-04-25T14:38:52;3.25;;;1.92;;
62258;SDS011;48241;48.824;10.102;2023-04-25T14:41:18;2.58;;;2.00;;
62258;SDS011;48241;48.824;10.102;2023-04-25T14:43:44;2.13;;;1.63;;
62258;SDS011;48241;48.824;10.102;2023-04-25T14:46:10;4.20;;;1.80;;
62258;SDS011;48241;48.824;10.102;2023-04-25T14:48:36;3.53;;;1.90;;
62258;SDS011;48241;48.824;10.102;2023-04-25T14:51:01;3.47;;;2.20;;